Amherst, MA

5:26 AM EDT on October 23, 2014 (GMT -0400)
Bradley International | Change Station
CLOSE
Current Station
Airport
Location: Windsor Locks,
Elevation: 180 ft
Nearby Weather Stations

Elev 180 ft 41.94 °N, 72.68 °W | Updated 35 minutes ago

Rain
Rain
51 °F
Feels Like 51 °F
N
20
Wind Variable Wind from North
Gusts 26 mph

Today
High -- | Low -- °F
--% Chance of Precip.
Yesterday
High -- | Low -- °F
Precip. -- in
7:12 AM 5:55 PM
Waning Crescent, 0% visible
Pressure 29.71 in
Visibility 9.0 miles
Clouds Scattered Clouds 1500 ft
Overcast 2500 ft
Dew Point 46 °F
Humidity 83%
Rainfall 0.07 in
Snow Depth Not available.
UV 0 out of 12
Pollen .10 out of 12
Air Quality Not available.
Flu Activity No Activity
METAR KBDL 230851Z 01017G23KT 9SM -RA SCT015 OVC025 11/08 A2970 RMK AO2 RAB51 SLP059 P0000 60002 T01060078 56029

More Conditions Fewer Conditions

Pressure 29.71 in
Visibility 9.0 miles
Clouds Scattered Clouds 1500 ft
Overcast 2500 ft
Dew Point 46 °F
Humidity 83%
Rainfall 0.07 in
Snow Depth Not available.
UV 0 out of 12
Pollen .10 out of 12
Air Quality Not available.
Flu Activity No Activity
METAR KBDL 230851Z 01017G23KT 9SM -RA SCT015 OVC025 11/08 A2970 RMK AO2 RAB51 SLP059 P0000 60002 T01060078 56029

More Conditions Fewer Conditions

10-Day Weather Forecast

Almanac

Astronomy

Oct. 23, 2014 Rise Set
Actual Time 7:12 AM EDT 5:55 PM EDT
Civil Twilight 6:43 AM EDT 6:24 PM EDT
Nautical Twilight 6:10 AM EDT 6:56 PM EDT
Astronomical Twilight 5:38 AM EDT 7:29 PM EDT
Moon 6:48 AM EDT 5:55 PM EDT
Length of Visible Light 11h 40m
Length of Day
10h 43m
Tomorrow will be 2m 41s shorter.
Waning Crescent, 0% of the Moon is Illuminated
Today
Waning Crescent
Oct 23
New
Oct 30
First Quarter
Nov 6
Full
Nov 14
Last Quarter

Today's Extremes

State Highs State Lows

Community

WunderPhotos

Upload Photos

1,764,199 photos uploaded!

Nearby

Air Quality

  Air Quality AQ Index Pollutant
Thursday Good
PM2.5

Snow Depth

Station Depth Elevation
No new snow has been reported.

Earthquake Activity

City Distance Mag. Time & Date
No recent earthquake activity has been reported nearby.
Minimum magnitude displayed is 2.5.

Coastal Water Temperatures

Place Temperature
No Stations Reporting

Nearby Weather Stations